Cross River, New York
Current Conditions -  °F | °C
As of 8:53 PM on Monday 22 Dec 2014 (Local Time) from KDXR Reporting Station
Haze Haze  
Wind Chill: 39°   Ceiling: 600
Heat Index: 39°   Visibility: 3mi
Dew Point: 35°   Wind: 3mph
Humidity: 86%   Direction: 50°NE
Pressure: 30.24"   Gusts: NA
Location:  41.26°N, 73.61°W
Report Text: KDXR 230153Z 05003KT 3SM BR OVC006 04/02 A3024 RMK AO2 CIG 005V010 SLP243 T00390017
Loading
Personal Weather Stations






























Interactive Weather Map New forecast layout! Learn more

10-Day Weather Forecast

Advertisements
Track Severe Weather on mobile